Blue Ridge Observed Data For Previous 48 Hours

Caption
Day and Hour Reservoir Elevation (behind dam)* Tailwater Elevation (below dam)* Average Hourly Discharge*
6/21/2017 2 AM EDT 1,687.11 1,540.60 154
6/21/2017 3 AM EDT 1,687.11 1,540.60 154
6/21/2017 4 AM EDT 1,687.11 1,540.61 154
6/21/2017 5 AM EDT 1,687.11 1,540.61 154
6/21/2017 6 AM EDT 1,687.08 1,540.61 154
6/21/2017 7 AM EDT 1,687.13 1,540.61 154
6/21/2017 8 AM EDT 1,687.15 1,540.61 154
6/21/2017 9 AM EDT 1,687.15 1,540.62 154
6/21/2017 10 AM EDT 1,687.16 1,540.61 154
6/21/2017 11 AM EDT 1,687.17 1,540.61 154
6/21/2017 12 PM EDT 1,687.17 1,540.61 154
6/21/2017 1 PM EDT 1,687.17 1,540.61 154
6/21/2017 2 PM EDT 1,687.16 1,540.61 154
6/21/2017 3 PM EDT 1,687.14 1,543.02 1,322
6/21/2017 4 PM EDT 1,687.10 1,543.18 1,559
6/21/2017 5 PM EDT 1,687.02 1,543.17 1,563
6/21/2017 6 PM EDT 1,687.01 1,543.18 1,559
6/21/2017 7 PM EDT 1,687.01 1,543.17 1,560
6/21/2017 8 PM EDT 1,686.98 1,543.17 1,556
6/21/2017 9 PM EDT 1,686.98 1,540.71 247
6/21/2017 10 PM EDT 1,686.97 1,540.60 157
6/21/2017 11 PM EDT 1,687.00 1,540.60 157
6/22/2017 12 AM EDT 1,687.03 1,540.60 157
6/22/2017 1 AM EDT 1,687.01 1,540.60 157
6/22/2017 2 AM EDT 1,687.05 1,540.60 157
6/22/2017 3 AM EDT 1,687.01 1,540.60 157
6/22/2017 4 AM EDT 1,686.99 1,540.60 157
6/22/2017 5 AM EDT 1,687.03 1,540.55 157
6/22/2017 6 AM EDT 1,687.03 1,543.06 1,460
6/22/2017 7 AM EDT 1,686.97 1,543.18 1,558
6/22/2017 8 AM EDT 1,686.92 1,543.18 1,556
6/22/2017 9 AM EDT 1,686.96 1,543.19 1,556
6/22/2017 10 AM EDT 1,686.89 1,543.19 1,556
6/22/2017 11 AM EDT 1,686.86 1,543.18 1,557
6/22/2017 12 PM EDT 1,686.82 1,543.18 1,552
6/22/2017 1 PM EDT 1,686.80 1,543.18 1,553
6/22/2017 2 PM EDT 1,686.78 1,540.72 247
6/22/2017 3 PM EDT 1,686.78 1,540.60 153
6/22/2017 4 PM EDT 1,686.79 1,540.60 154
6/22/2017 5 PM EDT 1,686.79 1,540.60 153
6/22/2017 6 PM EDT 1,686.81 1,540.60 154
6/22/2017 7 PM EDT 1,686.82 1,540.60 153
6/22/2017 8 PM EDT 1,686.85 1,540.61 154
6/22/2017 9 PM EDT 1,686.86 1,540.60 154
6/22/2017 10 PM EDT 1,686.88 1,540.61 154
6/22/2017 11 PM EDT 1,686.89 1,540.60 154
6/23/2017 12 AM EDT 1,686.92 1,540.60 154
6/23/2017 1 AM EDT 1,686.91 1,540.60 154
6/23/2017 2 AM EDT 1,686.92 1,540.60 154
6/23/2017 3 AM EDT 1,686.95 1,540.60 154
6/23/2017 4 AM EDT 1,686.96 1,540.60 154
6/23/2017 5 AM EDT 1,686.94 1,540.60 154
6/23/2017 6 AM EDT 1,686.96 1,540.60 154
6/23/2017 7 AM EDT 1,686.98 1,540.61 154
6/23/2017 8 AM EDT 1,686.96 1,540.61 154
6/23/2017 9 AM EDT 1,687.02 1,540.60 154
6/23/2017 10 AM EDT 1,687.01 1,540.60 154
6/23/2017 11 AM EDT 1,687.03 1,541.13 378
6/23/2017 12 PM EDT 1,686.98 1,543.18 1,580
6/23/2017 1 PM EDT 1,687.00 1,543.23 1,576

Elevations are in feet above sea level. Discharges are in cubic feet per second and are reported at the end of the hour.